Time;durP1;ratioP1;P1;durP2;ratioP2;P2;SDS_P1;SDS_P2;PMS_P1;PMS_P2;Temp;Humidity;BMP_temperature;BMP_pressure;BME280_temperature;BME280_humidity;BME280_pressure;Samples;Min_cycle;Max_cycle;Signal;HPM_P1;HPM_P2
2023/07/25 00:02:25;;;;;;;3.88;2.30;;;16.70;99.90;;;;;;5053783;28;20194;-79
2023/07/25 00:04:53;;;;;;;5.13;2.72;;;16.80;99.90;;;;;;5036778;28;20222;-80
2023/07/25 00:07:21;;;;;;;5.63;2.63;;;16.70;99.90;;;;;;5036748;28;20542;-80
2023/07/25 00:09:49;;;;;;;6.25;2.45;;;16.60;99.90;;;;;;5016048;28;20199;-79
2023/07/25 00:12:16;;;;;;;5.22;2.28;;;16.70;99.90;;;;;;5035717;28;20195;-80
2023/07/25 00:14:44;;;;;;;5.63;2.47;;;16.80;99.90;;;;;;5016041;28;20203;-79
2023/07/25 00:17:11;;;;;;;4.32;2.10;;;16.70;99.90;;;;;;5031201;28;20226;-79
2023/07/25 00:19:38;;;;;;;4.28;2.55;;;16.70;99.90;;;;;;5032977;28;20207;-79
2023/07/25 00:22:06;;;;;;;3.63;2.40;;;16.80;99.90;;;;;;5035768;28;20209;-79
2023/07/25 00:24:35;;;;;;;2.92;2.30;;;16.70;99.90;;;;;;5036506;28;20293;-79
2023/07/25 00:27:02;;;;;;;3.40;2.28;;;16.60;99.90;;;;;;5023886;28;20233;-79
2023/07/25 00:29:43;;;;;;;4.65;2.25;;;16.70;99.90;;;;;;5036140;28;20198;-79
2023/07/25 00:32:10;;;;;;;6.35;2.75;;;16.80;99.90;;;;;;5033812;28;20201;-79
2023/07/25 00:34:37;;;;;;;4.47;2.25;;;16.70;99.90;;;;;;5033840;28;20683;-79
2023/07/25 00:37:05;;;;;;;4.20;2.42;;;16.80;99.90;;;;;;5036286;28;20222;-80
2023/07/25 00:39:33;;;;;;;6.65;2.15;;;16.70;99.90;;;;;;5022391;28;20669;-79
2023/07/25 00:42:01;;;;;;;4.15;2.53;;;16.80;99.90;;;;;;5024466;28;20527;-80
2023/07/25 00:44:29;;;;;;;3.45;2.47;;;16.80;99.90;;;;;;5033125;28;20198;-79
2023/07/25 00:46:56;;;;;;;5.68;2.40;;;16.80;99.90;;;;;;5032228;28;20352;-81
2023/07/25 00:49:24;;;;;;;3.75;2.30;;;16.70;99.90;;;;;;5030492;28;20198;-79
2023/07/25 00:51:52;;;;;;;4.88;2.38;;;16.80;99.90;;;;;;5035274;28;20210;-79
2023/07/25 00:54:19;;;;;;;4.68;2.60;;;16.70;99.90;;;;;;5034127;28;20202;-80
2023/07/25 00:56:46;;;;;;;6.35;2.33;;;16.60;99.90;;;;;;5036061;28;20226;-79
2023/07/25 00:59:15;;;;;;;4.32;2.42;;;16.50;99.90;;;;;;5026206;28;20207;-79
2023/07/25 01:01:43;;;;;;;6.03;2.53;;;16.50;99.90;;;;;;5030617;28;20199;-79
2023/07/25 01:04:10;;;;;;;6.30;2.63;;;16.50;99.90;;;;;;5034779;28;20203;-79
2023/07/25 01:06:38;;;;;;;4.57;2.53;;;16.60;99.90;;;;;;5032716;28;20221;-79
2023/07/25 01:09:05;;;;;;;5.30;2.40;;;16.40;99.90;;;;;;5033009;28;20194;-79
2023/07/25 01:11:33;;;;;;;4.80;2.15;;;16.50;99.90;;;;;;5035557;28;20198;-79
2023/07/25 01:14:00;;;;;;;4.93;2.13;;;16.50;99.90;;;;;;5035091;28;20198;-79
2023/07/25 01:16:30;;;;;;;4.43;2.58;;;16.50;99.90;;;;;;5026457;28;20218;-79
2023/07/25 01:18:58;;;;;;;5.10;2.42;;;16.50;99.90;;;;;;5034080;28;20660;-79
2023/07/25 01:21:26;;;;;;;4.28;2.30;;;16.50;99.90;;;;;;5057511;28;20210;-79
2023/07/25 01:23:53;;;;;;;5.30;2.15;;;16.60;99.90;;;;;;5052226;28;20197;-79
2023/07/25 01:26:24;;;;;;;4.00;2.15;;;16.60;99.90;;;;;;5054424;28;20206;-79
2023/07/25 01:28:57;;;;;;;3.33;2.20;;;16.70;99.90;;;;;;5034399;28;20194;-79
2023/07/25 01:31:25;;;;;;;4.00;2.28;;;16.70;99.90;;;;;;5048283;28;20209;-79
2023/07/25 01:33:52;;;;;;;5.03;2.45;;;16.60;99.90;;;;;;5037678;28;20209;-79
2023/07/25 01:36:20;;;;;;;4.35;2.42;;;16.70;99.90;;;;;;5035832;28;20194;-79
2023/07/25 01:38:47;;;;;;;3.70;2.60;;;16.60;99.90;;;;;;5067542;28;20194;-79
2023/07/25 01:41:15;;;;;;;4.28;2.30;;;16.70;99.90;;;;;;5036795;28;20221;-79
2023/07/25 01:43:43;;;;;;;5.50;2.35;;;16.60;99.90;;;;;;5056068;28;20651;-79
2023/07/25 01:46:11;;;;;;;4.07;2.28;;;16.70;99.90;;;;;;5029259;28;20222;-79
2023/07/25 01:48:39;;;;;;;2.75;2.03;;;16.60;99.90;;;;;;5038039;28;20209;-79
2023/07/25 01:51:08;;;;;;;5.20;3.17;;;16.60;99.90;;;;;;5038581;28;20560;-79
2023/07/25 01:53:35;;;;;;;4.63;2.42;;;16.60;99.90;;;;;;5037984;28;20569;-79
2023/07/25 01:56:03;;;;;;;4.85;2.30;;;16.50;99.90;;;;;;5033868;28;20196;-79
2023/07/25 01:58:30;;;;;;;4.50;2.30;;;16.40;99.90;;;;;;5036295;28;20555;-79
2023/07/25 02:01:00;;;;;;;5.10;2.47;;;16.50;99.90;;;;;;5024484;28;20202;-80
2023/07/25 02:03:28;;;;;;;3.92;2.30;;;16.70;99.90;;;;;;5036210;28;20195;-79
2023/07/25 02:05:55;;;;;;;4.85;2.33;;;16.60;99.90;;;;;;5071182;28;20222;-80
2023/07/25 02:08:23;;;;;;;4.55;2.70;;;16.40;99.90;;;;;;5037062;28;20217;-79
2023/07/25 02:10:50;;;;;;;4.13;2.25;;;16.30;99.90;;;;;;5037111;28;20218;-79
2023/07/25 02:13:17;;;;;;;4.80;2.50;;;16.30;99.90;;;;;;5033799;28;20202;-79
2023/07/25 02:15:45;;;;;;;5.53;2.47;;;16.20;99.90;;;;;;5036994;28;20195;-79
2023/07/25 02:18:14;;;;;;;5.90;2.70;;;16.20;99.90;;;;;;5037694;28;20214;-79
2023/07/25 02:20:41;;;;;;;5.75;2.63;;;16.20;99.90;;;;;;5036376;28;20655;-79
2023/07/25 02:23:10;;;;;;;9.25;2.90;;;16.40;99.90;;;;;;5037389;28;20198;-79
2023/07/25 02:25:38;;;;;;;4.38;2.97;;;16.40;99.90;;;;;;5037504;28;20233;-79
2023/07/25 02:28:05;;;;;;;6.45;2.63;;;16.40;99.90;;;;;;5037337;28;20214;-79
2023/07/25 02:30:33;;;;;;;5.65;3.08;;;16.40;99.90;;;;;;5036562;28;20210;-79
2023/07/25 02:33:00;;;;;;;3.80;2.75;;;16.40;99.90;;;;;;5048550;28;20201;-79
2023/07/25 02:35:29;;;;;;;6.32;2.90;;;16.30;99.90;;;;;;5036645;28;20406;-79
2023/07/25 02:37:57;;;;;;;6.55;3.53;;;16.30;99.90;;;;;;5037123;28;20241;-79
2023/07/25 02:40:25;;;;;;;5.97;2.83;;;16.20;99.90;;;;;;5055497;28;20199;-79
2023/07/25 02:42:53;;;;;;;3.88;2.85;;;16.20;99.90;;;;;;5037089;28;20994;-79
2023/07/25 02:45:20;;;;;;;3.65;2.75;;;16.20;99.90;;;;;;5056321;28;20190;-79
2023/07/25 02:47:48;;;;;;;6.07;3.10;;;16.30;99.90;;;;;;5038692;28;20225;-79
2023/07/25 02:50:24;;;;;;;5.50;3.22;;;16.20;99.90;;;;;;5037039;28;20198;-79
2023/07/25 02:52:53;;;;;;;4.47;2.67;;;16.20;99.90;;;;;;5070347;28;20216;-79
2023/07/25 02:55:20;;;;;;;4.50;3.22;;;16.10;99.90;;;;;;5024839;28;20214;-79
2023/07/25 02:57:48;;;;;;;4.22;3.08;;;16.20;99.90;;;;;;5045112;28;20588;-79
2023/07/25 03:00:15;;;;;;;6.03;3.30;;;16.10;99.90;;;;;;5036331;28;20213;-79
2023/07/25 03:02:43;;;;;;;4.38;3.33;;;16.00;99.90;;;;;;5036123;28;20210;-79
2023/07/25 03:05:10;;;;;;;7.28;3.50;;;15.90;99.90;;;;;;5036837;28;20205;-79
2023/07/25 03:07:38;;;;;;;5.93;3.40;;;16.00;99.90;;;;;;5037596;28;20715;-79
2023/07/25 03:10:08;;;;;;;6.95;3.33;;;15.90;99.90;;;;;;5036420;28;20194;-79
2023/07/25 03:12:36;;;;;;;4.90;3.38;;;15.90;99.90;;;;;;5065513;28;20209;-79
2023/07/25 03:15:04;;;;;;;4.30;3.78;;;15.90;99.90;;;;;;5037053;28;20213;-79
2023/07/25 03:17:32;;;;;;;5.53;3.40;;;15.80;99.90;;;;;;5038135;28;20214;-79
2023/07/25 03:20:00;;;;;;;4.90;3.15;;;15.80;99.90;;;;;;5037150;28;20190;-79
2023/07/25 03:22:27;;;;;;;5.85;3.47;;;15.80;99.90;;;;;;5037152;28;20213;-79
2023/07/25 03:24:55;;;;;;;4.20;3.28;;;15.70;99.90;;;;;;5037813;28;20202;-79
2023/07/25 03:27:23;;;;;;;8.18;3.50;;;15.80;99.90;;;;;;5037057;28;20687;-79
2023/07/25 03:29:51;;;;;;;5.68;4.03;;;15.80;99.90;;;;;;5030233;28;20194;-79
2023/07/25 03:32:18;;;;;;;6.93;3.72;;;15.80;99.90;;;;;;5038185;28;20203;-79
2023/07/25 03:34:46;;;;;;;8.18;3.85;;;15.80;99.90;;;;;;5033447;28;20202;-79
2023/07/25 03:37:13;;;;;;;6.35;3.83;;;15.70;99.90;;;;;;5036464;28;20222;-79
2023/07/25 03:39:41;;;;;;;6.70;3.63;;;15.70;99.90;;;;;;5035106;28;20198;-79
2023/07/25 03:42:08;;;;;;;4.50;3.35;;;15.70;99.90;;;;;;5035513;28;20676;-79
2023/07/25 03:44:37;;;;;;;6.82;3.45;;;15.60;99.90;;;;;;5035954;28;20202;-79
2023/07/25 03:47:05;;;;;;;5.68;3.33;;;15.70;99.90;;;;;;5035370;28;20593;-79
2023/07/25 03:49:33;;;;;;;5.43;3.60;;;15.60;99.90;;;;;;5034426;28;20195;-79
2023/07/25 03:52:00;;;;;;;4.30;3.10;;;15.60;99.90;;;;;;5024832;28;20202;-79
2023/07/25 03:54:26;;;;;;;7.32;3.67;;;15.50;99.90;;;;;;5034360;28;20202;-79
2023/07/25 03:56:54;;;;;;;6.28;3.58;;;15.40;99.90;;;;;;5035507;28;20214;-79
2023/07/25 03:59:21;;;;;;;5.50;3.38;;;15.20;99.90;;;;;;5033520;28;20699;-79
2023/07/25 04:01:50;;;;;;;5.85;3.47;;;15.10;99.90;;;;;;5034256;28;20213;-79
2023/07/25 04:04:17;;;;;;;7.93;3.28;;;15.10;99.90;;;;;;5035861;28;20209;-79
2023/07/25 04:06:45;;;;;;;4.95;3.55;;;15.20;99.90;;;;;;5065059;28;20218;-79
2023/07/25 04:09:12;;;;;;;4.97;3.53;;;15.20;99.90;;;;;;5057015;28;20201;-79
2023/07/25 04:11:40;;;;;;;5.53;3.45;;;15.20;99.90;;;;;;5055180;28;20194;-79
2023/07/25 04:14:07;;;;;;;6.28;4.38;;;15.40;99.90;;;;;;5034763;28;20217;-79
2023/07/25 04:16:34;;;;;;;5.28;3.67;;;15.40;99.90;;;;;;5036478;28;20222;-79
2023/07/25 04:19:03;;;;;;;7.25;3.83;;;15.40;99.90;;;;;;5054597;28;20197;-79
2023/07/25 04:21:31;;;;;;;5.15;3.30;;;15.10;99.90;;;;;;5035957;28;20659;-79
2023/07/25 04:23:58;;;;;;;3.53;3.10;;;15.00;99.90;;;;;;5036746;28;20213;-79
2023/07/25 04:26:25;;;;;;;8.07;3.75;;;15.00;99.90;;;;;;5036233;28;20226;-79
2023/07/25 04:28:55;;;;;;;4.50;3.63;;;15.10;99.90;;;;;;5029593;28;20202;-79
2023/07/25 04:31:22;;;;;;;4.75;3.90;;;15.10;99.90;;;;;;5026960;28;20282;-79
2023/07/25 04:33:50;;;;;;;5.75;3.80;;;15.10;99.90;;;;;;5017061;28;20203;-78
2023/07/25 04:36:28;;;;;;;7.70;3.70;;;15.20;99.90;;;;;;5031788;28;20194;-79
2023/07/25 04:38:56;;;;;;;3.88;3.13;;;15.40;99.90;;;;;;5036189;28;20198;-79
2023/07/25 04:41:45;;;;;;;5.47;3.97;;;15.20;99.90;;;;;;5035588;28;20194;-79
2023/07/25 04:44:13;;;;;;;4.50;3.92;;;15.10;99.90;;;;;;5042030;28;20194;-79
2023/07/25 04:46:40;;;;;;;5.72;3.67;;;15.10;99.90;;;;;;5036697;28;20222;-79
2023/07/25 04:49:11;;;;;;;6.57;3.83;;;15.20;99.90;;;;;;5034967;28;20206;-80
2023/07/25 04:51:40;;;;;;;6.05;4.00;;;15.30;99.90;;;;;;5032681;28;20213;-79
2023/07/25 04:54:08;;;;;;;4.70;3.88;;;15.30;99.90;;;;;;5036438;28;20194;-80
2023/07/25 04:56:36;;;;;;;6.07;4.20;;;15.30;99.90;;;;;;5028850;28;20219;-79
2023/07/25 04:59:12;;;;;;;4.88;3.45;;;15.30;99.90;;;;;;5028492;28;20198;-79
2023/07/25 05:01:40;;;;;;;4.45;4.03;;;15.40;99.90;;;;;;5034721;28;20201;-79
2023/07/25 05:04:10;;;;;;;5.40;3.80;;;15.50;99.90;;;;;;5038888;28;20205;-79
2023/07/25 05:06:38;;;;;;;8.70;3.88;;;15.40;99.90;;;;;;5037910;28;20704;-79
2023/07/25 05:09:14;;;;;;;5.97;3.65;;;15.50;99.90;;;;;;5037622;28;20683;-79
2023/07/25 05:11:42;;;;;;;6.10;3.38;;;15.60;99.90;;;;;;5051778;28;20213;-79
2023/07/25 05:14:09;;;;;;;8.80;5.47;;;15.70;99.90;;;;;;5052472;28;20221;-79
2023/07/25 05:16:44;;;;;;;4.18;3.63;;;15.70;99.90;;;;;;5043579;28;20221;-79
2023/07/25 05:19:26;;;;;;;5.97;3.92;;;15.80;99.90;;;;;;5031749;28;20205;-79
2023/07/25 05:21:55;;;;;;;7.32;2.92;;;15.90;99.90;;;;;;5035407;28;20203;-79
2023/07/25 05:24:23;;;;;;;3.85;3.30;;;16.10;99.90;;;;;;5038699;28;20198;-79
2023/07/25 05:26:51;;;;;;;7.38;3.60;;;16.80;99.90;;;;;;5047731;28;20700;-78
2023/07/25 05:29:18;;;;;;;8.18;3.53;;;16.70;99.90;;;;;;5048837;28;20209;-78
2023/07/25 05:31:45;;;;;;;12.23;6.03;;;16.80;99.90;;;;;;5039672;28;20210;-77
2023/07/25 05:34:13;;;;;;;8.32;4.80;;;16.80;99.90;;;;;;5034387;28;20214;-78
2023/07/25 05:36:40;;;;;;;8.02;4.20;;;17.00;99.90;;;;;;5050615;28;20210;-78
2023/07/25 05:39:14;;;;;;;10.57;3.92;;;17.10;99.90;;;;;;5043182;28;20221;-79
2023/07/25 05:41:42;;;;;;;13.45;4.75;;;17.20;99.90;;;;;;5034852;28;20204;-80
2023/07/25 05:44:10;;;;;;;10.90;3.45;;;17.70;99.90;;;;;;5029988;28;20210;-81
2023/07/25 05:46:37;;;;;;;5.63;3.20;;;17.80;99.90;;;;;;5031871;28;20223;-81
2023/07/25 05:49:05;;;;;;;5.72;3.10;;;18.00;99.90;;;;;;5033029;28;20571;-81
2023/07/25 05:51:32;;;;;;;4.90;2.75;;;17.90;99.90;;;;;;5037377;28;20210;-81
2023/07/25 05:54:02;;;;;;;5.95;2.88;;;17.60;99.90;;;;;;5039119;28;20207;-81
2023/07/25 05:56:31;;;;;;;6.60;2.85;;;17.80;99.90;;;;;;5053372;28;20229;-81
2023/07/25 05:58:58;;;;;;;6.40;3.05;;;18.00;99.90;;;;;;5036048;28;20536;-81
2023/07/25 06:01:26;;;;;;;6.88;2.95;;;18.10;99.90;;;;;;5036743;28;20207;-81
2023/07/25 06:03:53;;;;;;;5.72;2.80;;;18.10;99.90;;;;;;5036684;28;20571;-81
2023/07/25 06:06:20;;;;;;;6.65;3.20;;;18.00;99.90;;;;;;5036530;28;20664;-81
2023/07/25 06:08:48;;;;;;;4.57;2.13;;;18.00;99.90;;;;;;5024474;28;20218;-81
2023/07/25 06:11:21;;;;;;;3.80;2.63;;;18.00;99.90;;;;;;5027918;28;20663;-81
2023/07/25 06:13:52;;;;;;;4.97;2.70;;;17.80;99.90;;;;;;5018192;28;20207;-81
2023/07/25 06:16:19;;;;;;;6.15;2.58;;;17.70;99.90;;;;;;5027579;28;20199;-81
2023/07/25 06:18:47;;;;;;;6.38;2.70;;;17.60;99.90;;;;;;5034747;28;20194;-81
2023/07/25 06:21:14;;;;;;;4.15;2.65;;;17.60;99.90;;;;;;5059466;28;20199;-81
2023/07/25 06:23:44;;;;;;;6.22;2.60;;;17.80;99.90;;;;;;5035716;28;20202;-81
2023/07/25 06:26:11;;;;;;;4.35;2.78;;;17.90;99.90;;;;;;5035369;28;20205;-81
2023/07/25 06:28:39;;;;;;;6.57;2.63;;;18.10;99.90;;;;;;5035828;28;20723;-81
2023/07/25 06:31:07;;;;;;;3.83;3.15;;;17.80;99.90;;;;;;5035512;28;20567;-82
2023/07/25 06:33:35;;;;;;;7.78;2.40;;;17.60;99.90;;;;;;5069896;28;20214;-82
2023/07/25 06:36:02;;;;;;;3.75;2.28;;;17.80;99.90;;;;;;5028956;28;20198;-82
2023/07/25 06:38:30;;;;;;;7.38;2.88;;;17.90;99.90;;;;;;5054001;28;20573;-82
2023/07/25 06:40:57;;;;;;;5.18;2.83;;;18.10;99.90;;;;;;5030321;28;20198;-81
2023/07/25 06:43:25;;;;;;;7.75;2.40;;;18.20;99.90;;;;;;5032237;28;20206;-81
2023/07/25 06:46:25;;;;;;;4.80;2.75;;;18.20;99.90;;;;;;5028455;28;20199;-80
2023/07/25 06:48:52;;;;;;;4.22;2.88;;;18.10;99.90;;;;;;5049262;28;20233;-81
2023/07/25 06:51:20;;;;;;;8.70;3.03;;;17.70;99.90;;;;;;5049785;28;20194;-82
2023/07/25 06:53:47;;;;;;;8.07;3.13;;;17.30;99.90;;;;;;5038698;28;20202;-81
2023/07/25 06:56:23;;;;;;;5.53;2.72;;;17.30;99.90;;;;;;5030884;28;20207;-80
2023/07/25 06:58:50;;;;;;;6.05;3.35;;;17.30;99.90;;;;;;5027625;28;20197;-80
2023/07/25 07:01:18;;;;;;;7.28;3.70;;;17.20;99.90;;;;;;5056451;28;20672;-80
2023/07/25 07:04:06;;;;;;;7.60;3.05;;;17.30;99.90;;;;;;5033979;28;20209;-81
2023/07/25 07:06:33;;;;;;;7.82;3.05;;;17.30;99.90;;;;;;5051034;28;20214;-80
2023/07/25 07:09:00;;;;;;;6.78;3.15;;;17.40;99.90;;;;;;5065888;28;20222;-81
2023/07/25 07:11:28;;;;;;;5.68;3.38;;;17.20;99.90;;;;;;5032757;28;20235;-81
2023/07/25 07:13:55;;;;;;;6.00;3.25;;;17.30;99.90;;;;;;5027028;28;20209;-81
2023/07/25 07:16:22;;;;;;;3.53;2.45;;;17.50;99.90;;;;;;5027192;28;20207;-81
2023/07/25 07:18:51;;;;;;;6.68;3.40;;;17.50;99.90;;;;;;5031502;28;20209;-81
2023/07/25 07:21:32;;;;;;;8.20;4.07;;;17.40;99.90;;;;;;5025115;28;20195;-80
2023/07/25 07:24:00;;;;;;;10.85;3.30;;;17.30;99.90;;;;;;5057546;28;20206;-81
2023/07/25 07:26:27;;;;;;;6.93;2.75;;;17.50;99.90;;;;;;5026245;28;20226;-82
2023/07/25 07:28:54;;;;;;;4.95;2.83;;;17.60;99.90;;;;;;5040850;28;20219;-81
2023/07/25 07:31:24;;;;;;;7.60;2.67;;;17.70;99.90;;;;;;5022177;28;20673;-81
2023/07/25 07:33:52;;;;;;;5.07;2.33;;;17.70;99.90;;;;;;5051392;28;20190;-82
2023/07/25 07:36:34;;;;;;;5.05;2.72;;;17.80;99.90;;;;;;5032820;28;20203;-80
2023/07/25 07:39:02;;;;;;;5.00;2.17;;;17.80;99.90;;;;;;5031244;28;20567;-81
2023/07/25 07:41:42;;;;;;;5.40;2.22;;;17.80;99.90;;;;;;5060331;28;20210;-82
2023/07/25 07:44:10;;;;;;;5.65;2.03;;;17.70;99.90;;;;;;5028599;28;20206;-81
2023/07/25 07:46:38;;;;;;;3.55;1.90;;;17.70;99.90;;;;;;5052185;28;20214;-80
2023/07/25 07:49:05;;;;;;;4.40;2.17;;;17.80;99.90;;;;;;5043764;28;20218;-80
2023/07/25 07:51:35;;;;;;;4.55;1.98;;;17.90;99.90;;;;;;5035129;28;20210;-79
2023/07/25 07:54:02;;;;;;;3.15;1.60;;;18.10;99.90;;;;;;5030324;28;20209;-80
2023/07/25 07:56:32;;;;;;;3.22;1.73;;;18.20;99.90;;;;;;5042666;28;20230;-81
2023/07/25 07:59:00;;;;;;;6.53;2.00;;;18.30;99.90;;;;;;5038551;28;20191;-83
2023/07/25 08:01:27;;;;;;;3.72;1.90;;;18.20;99.90;;;;;;5028249;28;20202;-80
2023/07/25 08:03:55;;;;;;;3.05;1.50;;;18.30;99.90;;;;;;5058628;28;20198;-79
2023/07/25 08:06:22;;;;;;;4.43;1.95;;;18.40;99.90;;;;;;5018978;28;20203;-80
2023/07/25 08:08:51;;;;;;;5.75;1.80;;;18.40;99.90;;;;;;5021678;28;20698;-80
2023/07/25 08:11:19;;;;;;;5.05;2.05;;;18.50;99.90;;;;;;5033984;28;20191;-81
2023/07/25 08:13:46;;;;;;;4.95;1.95;;;18.50;99.90;;;;;;5022804;28;20206;-80
2023/07/25 08:16:14;;;;;;;4.05;2.30;;;18.30;99.90;;;;;;5043393;28;20198;-80
2023/07/25 08:18:41;;;;;;;7.13;2.00;;;18.30;99.90;;;;;;5031149;28;20202;-81
2023/07/25 08:21:09;;;;;;;3.67;1.40;;;18.40;99.90;;;;;;5018796;28;20210;-79
2023/07/25 08:23:36;;;;;;;1.70;1.30;;;18.50;99.90;;;;;;5028410;28;20222;-80
2023/07/25 08:26:05;;;;;;;4.15;1.55;;;18.40;99.90;;;;;;5030947;28;20195;-80
2023/07/25 08:28:32;;;;;;;7.15;1.70;;;18.30;99.90;;;;;;5018991;28;20233;-80
2023/07/25 08:31:01;;;;;;;3.13;1.80;;;18.50;99.90;;;;;;5029921;28;20205;-80
2023/07/25 08:33:37;;;;;;;4.93;1.95;;;18.50;99.90;;;;;;5046384;28;20198;-82
2023/07/25 08:36:13;;;;;;;4.18;2.00;;;18.20;99.90;;;;;;5034480;28;20207;-80
2023/07/25 08:39:00;;;;;;;5.68;2.40;;;18.30;99.90;;;;;;5043750;28;20190;-80
2023/07/25 08:41:37;;;;;;;5.22;2.50;;;18.20;99.90;;;;;;5028733;28;20208;-80
2023/07/25 08:44:09;;;;;;;3.47;1.90;;;18.30;99.90;;;;;;5033254;28;20189;-80
2023/07/25 08:46:37;;;;;;;3.47;2.03;;;18.20;99.90;;;;;;5034460;28;20222;-80
2023/07/25 08:49:08;;;;;;;6.28;2.53;;;18.00;99.90;;;;;;5033610;28;20290;-80
2023/07/25 08:51:43;;;;;;;5.03;2.20;;;17.90;99.90;;;;;;5051118;28;20202;-80
2023/07/25 08:54:15;;;;;;;4.25;2.50;;;17.90;99.90;;;;;;5030176;28;20607;-81
2023/07/25 08:56:46;;;;;;;7.68;2.75;;;17.90;99.90;;;;;;5026368;28;20214;-81
2023/07/25 08:59:14;;;;;;;5.20;2.53;;;17.80;99.90;;;;;;5024576;28;20194;-80
2023/07/25 09:01:44;;;;;;;7.80;3.20;;;17.80;99.90;;;;;;5029997;28;20202;-80
2023/07/25 09:04:12;;;;;;;5.50;2.95;;;17.80;99.90;;;;;;5033110;28;20559;-80
2023/07/25 09:06:42;;;;;;;6.82;3.22;;;17.80;99.90;;;;;;5016921;28;20234;-80
2023/07/25 09:09:09;;;;;;;4.20;2.92;;;18.00;99.90;;;;;;5019442;28;20214;-81
2023/07/25 09:11:39;;;;;;;5.00;2.80;;;17.90;99.90;;;;;;5018926;28;20199;-80
2023/07/25 09:14:29;;;;;;;6.63;3.22;;;17.80;99.90;;;;;;5052530;28;20209;-80
2023/07/25 09:17:11;;;;;;;4.63;3.20;;;17.70;99.90;;;;;;5040524;28;20227;-80
2023/07/25 09:20:11;;;;;;;3.65;2.33;;;17.90;99.90;;;;;;5045102;28;20186;-80
2023/07/25 09:22:48;;;;;;;6.55;3.10;;;18.00;99.90;;;;;;5049410;28;20563;-80
2023/07/25 09:25:16;;;;;;;4.97;2.63;;;18.10;99.90;;;;;;5023855;28;20225;-80
2023/07/25 09:27:45;;;;;;;5.15;2.80;;;18.30;99.90;;;;;;5031309;28;20218;-80
2023/07/25 09:30:27;;;;;;;4.05;2.72;;;18.20;99.90;;;;;;5044028;28;20584;-81
2023/07/25 09:33:06;;;;;;;4.88;3.35;;;18.40;99.90;;;;;;5028573;28;20194;-80
2023/07/25 09:35:57;;;;;;;5.10;3.00;;;18.40;99.90;;;;;;5030212;28;20661;-80
2023/07/25 09:38:25;;;;;;;3.45;2.17;;;18.30;99.90;;;;;;5066961;28;20229;-80
2023/07/25 09:40:52;;;;;;;3.47;2.00;;;18.40;99.90;;;;;;5052525;28;20183;-78
2023/07/25 09:43:23;;;;;;;6.13;2.40;;;18.60;99.90;;;;;;5033321;28;20225;-79
2023/07/25 09:45:52;;;;;;;3.88;2.10;;;18.40;99.90;;;;;;5033496;28;20209;-79
2023/07/25 09:48:20;;;;;;;4.30;2.47;;;18.30;99.90;;;;;;5030982;28;20218;-78
2023/07/25 09:50:48;;;;;;;3.13;2.30;;;18.30;99.90;;;;;;5029000;28;20293;-79
2023/07/25 09:53:17;;;;;;;4.53;2.60;;;18.10;99.90;;;;;;5045918;28;20214;-79
2023/07/25 09:55:45;;;;;;;7.18;3.05;;;18.30;99.90;;;;;;5036269;28;20202;-79
2023/07/25 09:58:13;;;;;;;6.60;2.95;;;18.30;99.90;;;;;;5047210;28;20215;-79
2023/07/25 10:00:41;;;;;;;5.32;2.42;;;18.30;99.90;;;;;;5068034;28;20199;-79
2023/07/25 10:03:10;;;;;;;6.60;2.70;;;18.50;99.90;;;;;;5033929;28;20199;-79
2023/07/25 10:05:42;;;;;;;4.07;2.47;;;18.60;99.90;;;;;;5049808;28;20203;-79
2023/07/25 10:08:11;;;;;;;3.80;2.70;;;18.70;99.90;;;;;;5046376;28;20226;-79
2023/07/25 10:10:40;;;;;;;5.45;2.67;;;18.90;99.90;;;;;;5045889;28;20215;-79
2023/07/25 10:13:08;;;;;;;4.88;2.92;;;19.00;99.90;;;;;;5036806;28;20218;-79
2023/07/25 10:15:36;;;;;;;4.28;2.60;;;19.00;99.90;;;;;;5044746;28;20203;-79
2023/07/25 10:18:05;;;;;;;6.25;3.22;;;19.20;99.90;;;;;;5050351;28;20230;-79
2023/07/25 10:20:33;;;;;;;4.00;2.40;;;19.20;99.90;;;;;;5038535;28;20198;-79
2023/07/25 10:23:11;;;;;;;5.07;3.00;;;19.00;99.90;;;;;;5029419;28;20198;-79
2023/07/25 10:25:39;;;;;;;5.38;3.08;;;18.70;99.90;;;;;;5034240;28;20199;-79
2023/07/25 10:28:06;;;;;;;4.45;2.20;;;18.50;99.90;;;;;;5052913;28;20225;-79
2023/07/25 10:30:42;;;;;;;5.18;2.70;;;18.20;99.90;;;;;;5030340;28;20214;-78
2023/07/25 10:33:12;;;;;;;4.63;2.63;;;17.90;99.90;;;;;;5059410;28;20209;-79
2023/07/25 10:35:43;;;;;;;3.75;2.60;;;18.00;99.90;;;;;;5033094;28;20205;-79
2023/07/25 10:38:12;;;;;;;4.45;2.83;;;17.90;99.90;;;;;;5037549;28;20241;-79
2023/07/25 10:40:57;;;;;;;5.53;2.72;;;17.80;99.90;;;;;;5035834;28;20206;-79
2023/07/25 10:43:56;;;;;;;4.97;2.50;;;17.70;99.90;;;;;;5047419;28;20676;-79
2023/07/25 10:46:27;;;;;;;5.00;3.17;;;17.80;99.90;;;;;;5031194;28;20202;-79
2023/07/25 10:48:56;;;;;;;5.60;3.00;;;17.70;99.90;;;;;;5035193;28;20205;-79
2023/07/25 10:51:44;;;;;;;4.25;2.80;;;17.80;99.90;;;;;;5054376;28;20206;-79
2023/07/25 10:54:13;;;;;;;4.30;2.28;;;17.80;99.90;;;;;;5022081;28;20219;-79
2023/07/25 10:56:41;;;;;;;6.32;2.78;;;17.60;99.90;;;;;;5019571;28;20218;-79
2023/07/25 10:59:10;;;;;;;4.10;2.50;;;17.60;99.90;;;;;;5031710;28;20594;-79
2023/07/25 11:01:43;;;;;;;6.05;2.85;;;17.60;99.90;;;;;;5028317;28;20198;-79
2023/07/25 11:04:29;;;;;;;6.45;2.63;;;17.60;99.90;;;;;;5030256;28;20198;-79
2023/07/25 11:07:07;;;;;;;4.13;2.45;;;17.60;99.90;;;;;;5033683;28;20225;-79
2023/07/25 11:09:40;;;;;;;9.52;3.70;;;17.70;99.90;;;;;;5031970;28;20209;-79
2023/07/25 11:12:08;;;;;;;8.18;2.75;;;17.90;99.90;;;;;;5034069;28;20198;-79
2023/07/25 11:14:42;;;;;;;5.10;3.28;;;17.90;99.90;;;;;;5035800;28;20206;-79
2023/07/25 11:17:09;;;;;;;4.68;2.38;;;18.00;99.90;;;;;;5035896;28;20225;-79
2023/07/25 11:19:37;;;;;;;4.88;2.85;;;18.30;99.90;;;;;;5035705;28;20198;-79
2023/07/25 11:22:11;;;;;;;6.28;2.35;;;18.50;99.90;;;;;;5031021;28;20202;-79
2023/07/25 11:24:42;;;;;;;5.00;2.00;;;18.40;99.90;;;;;;5035692;28;20212;-79
2023/07/25 11:27:10;;;;;;;8.65;2.50;;;18.30;99.90;;;;;;5036121;28;20226;-79
2023/07/25 11:29:37;;;;;;;6.65;2.90;;;18.10;99.90;;;;;;5033225;28;20213;-79
2023/07/25 11:32:05;;;;;;;4.82;1.80;;;18.00;99.90;;;;;;5034379;28;20213;-80
2023/07/25 11:34:33;;;;;;;3.40;2.05;;;17.90;99.90;;;;;;5026693;28;20198;-80
2023/07/25 11:37:00;;;;;;;3.72;2.10;;;17.90;99.90;;;;;;5035099;28;20592;-80
2023/07/25 11:39:29;;;;;;;5.88;2.22;;;17.70;99.90;;;;;;5033092;28;20210;-79
2023/07/25 11:41:57;;;;;;;4.03;2.30;;;17.80;99.90;;;;;;5035439;28;20656;-79
2023/07/25 11:44:25;;;;;;;5.60;2.30;;;17.70;99.90;;;;;;5036177;28;20194;-79
2023/07/25 11:46:54;;;;;;;5.55;2.25;;;17.80;99.90;;;;;;5039915;28;20214;-79
2023/07/25 11:49:22;;;;;;;6.03;2.22;;;17.80;99.90;;;;;;5040227;28;20209;-80
2023/07/25 11:51:52;;;;;;;4.40;2.20;;;17.80;99.90;;;;;;5033578;28;20207;-79
2023/07/25 11:54:20;;;;;;;5.80;2.60;;;17.80;99.90;;;;;;5038193;28;20213;-79
2023/07/25 11:56:49;;;;;;;3.65;2.15;;;18.00;99.90;;;;;;5030253;28;20236;-78
2023/07/25 11:59:16;;;;;;;4.13;2.45;;;18.00;99.90;;;;;;5031092;28;20205;-78
2023/07/25 12:01:44;;;;;;;4.50;2.38;;;17.90;99.90;;;;;;5029678;28;20195;-79
2023/07/25 12:04:43;;;;;;;5.20;1.90;;;17.80;99.90;;;;;;5026720;28;20695;-78
2023/07/25 12:07:10;;;;;;;6.57;2.08;;;17.80;99.90;;;;;;5036181;28;20225;-78
2023/07/25 12:09:38;;;;;;;5.25;2.10;;;17.90;99.90;;;;;;5048280;28;20190;-78
2023/07/25 12:12:12;;;;;;;4.57;1.92;;;17.90;99.90;;;;;;5051720;28;20210;-78
2023/07/25 12:14:41;;;;;;;5.00;1.95;;;18.00;99.90;;;;;;5033004;28;20353;-78
2023/07/25 12:17:08;;;;;;;4.25;1.90;;;18.10;99.90;;;;;;5051874;28;20221;-78
2023/07/25 12:19:35;;;;;;;3.88;1.90;;;18.30;99.90;;;;;;5033741;28;20209;-78
2023/07/25 12:22:07;;;;;;;4.75;2.10;;;18.30;99.90;;;;;;5030169;28;20198;-78
2023/07/25 12:24:40;;;;;;;3.65;1.95;;;18.50;99.90;;;;;;5048660;28;20191;-78
2023/07/25 12:27:17;;;;;;;4.97;2.00;;;19.00;99.90;;;;;;5031586;28;20219;-78
2023/07/25 12:29:45;;;;;;;3.13;1.75;;;19.10;99.90;;;;;;5033265;28;20201;-78
2023/07/25 12:32:13;;;;;;;3.28;1.52;;;18.90;99.90;;;;;;5029868;28;20234;-78
2023/07/25 12:34:40;;;;;;;3.80;1.73;;;19.00;99.90;;;;;;5026193;28;20207;-78
2023/07/25 12:37:08;;;;;;;3.80;1.50;;;19.20;99.90;;;;;;5023163;28;20225;-78
2023/07/25 12:39:36;;;;;;;4.60;1.33;;;19.30;99.90;;;;;;5079739;28;20194;-78
2023/07/25 12:42:04;;;;;;;2.72;1.13;;;19.40;99.90;;;;;;5053003;28;20190;-78
2023/07/25 12:44:33;;;;;;;3.70;1.08;;;19.30;99.90;;;;;;5028868;28;20676;-78
2023/07/25 12:47:00;;;;;;;1.67;1.35;;;19.30;98.60;;;;;;5032135;28;20222;-78
2023/07/25 12:49:28;;;;;;;3.22;0.85;;;19.40;97.80;;;;;;5025594;28;20209;-78
2023/07/25 12:51:55;;;;;;;3.25;1.45;;;19.80;96.20;;;;;;5027614;28;20218;-78
2023/07/25 12:54:22;;;;;;;2.20;0.98;;;20.30;96.20;;;;;;5031365;28;20668;-78
2023/07/25 12:56:50;;;;;;;3.78;1.00;;;20.10;94.50;;;;;;5027075;28;20226;-78
2023/07/25 12:59:17;;;;;;;3.70;0.70;;;20.00;95.30;;;;;;5031295;28;20206;-78